createdAt,value
2022-09-04T00:01:01.855Z,100844.91
2022-09-04T00:06:08.364Z,100858.19
2022-09-04T00:11:22.181Z,100856.47
2022-09-04T00:16:43.052Z,100865.16
2022-09-04T00:21:59.852Z,100869.78
2022-09-04T00:27:23.624Z,100872.75
2022-09-04T00:32:41.395Z,100877.56
2022-09-04T00:37:51.628Z,100878.84
2022-09-04T00:43:31.000Z,100884.19
2022-09-04T00:48:38.750Z,100895.59
2022-09-04T00:54:05.318Z,100896.97
2022-09-04T00:59:37.235Z,100897.69
2022-09-04T01:04:52.041Z,100897.50
2022-09-04T01:10:04.537Z,100894.53
2022-09-04T01:15:36.223Z,100906.28
2022-09-04T01:20:54.196Z,100913.25
2022-09-04T01:26:08.707Z,100920.28
2022-09-04T01:31:49.898Z,100928.34
2022-09-04T01:37:16.760Z,100933.19
2022-09-04T01:42:29.468Z,100930.06
2022-09-04T01:47:57.178Z,100941.34
2022-09-04T01:53:18.820Z,100945.91
2022-09-04T01:58:26.408Z,100938.75
2022-09-04T02:03:46.088Z,100943.28
2022-09-04T02:08:56.789Z,100943.66
2022-09-04T02:14:34.376Z,100952.59
2022-09-04T02:19:48.226Z,100951.91
2022-09-04T02:25:22.398Z,100953.47
2022-09-04T02:30:35.261Z,100957.41
2022-09-04T02:35:58.550Z,100966.78
2022-09-04T02:41:26.720Z,100969.56
2022-09-04T02:46:45.257Z,100959.81
2022-09-04T02:52:01.896Z,100955.84
2022-09-04T02:57:12.259Z,100968.59
2022-09-04T03:02:38.104Z,100969.03
2022-09-04T03:07:44.927Z,100971.25
2022-09-04T03:12:55.880Z,100973.66
2022-09-04T03:18:01.772Z,100986.69
2022-09-04T03:23:15.744Z,100988.13
2022-09-04T03:28:24.511Z,100991.91
2022-09-04T03:33:44.009Z,100994.81
2022-09-04T03:39:04.244Z,100992.72
2022-09-04T03:44:39.811Z,100989.38
2022-09-04T03:50:14.214Z,100991.31
2022-09-04T03:55:37.777Z,100991.16
2022-09-04T04:00:57.336Z,100998.19
2022-09-04T04:06:32.191Z,101002.38
2022-09-04T04:11:45.118Z,101010.97
2022-09-04T04:16:59.960Z,101009.53
2022-09-04T04:22:13.941Z,101017.13
2022-09-04T04:27:41.415Z,101023.75
2022-09-04T04:33:08.340Z,101027.25
2022-09-04T04:38:34.090Z,101037.78
2022-09-04T04:43:50.611Z,101042.47
2022-09-04T04:49:11.676Z,101040.25
2022-09-04T04:54:42.030Z,101059.31
2022-09-04T04:59:55.827Z,101057.34
2022-09-04T05:05:53.928Z,101063.91
2022-09-04T05:11:16.850Z,101070.56
2022-09-04T05:16:23.378Z,101066.34
2022-09-04T05:21:41.094Z,101078.94
2022-09-04T05:27:07.496Z,101092.16
2022-09-04T05:32:37.576Z,101100.41
2022-09-04T05:38:16.412Z,101097.38
2022-09-04T05:43:34.746Z,101106.88
2022-09-04T05:48:59.878Z,101124.47
2022-09-04T05:54:07.492Z,101127.31
2022-09-04T05:59:50.704Z,101131.09
2022-09-04T06:05:34.102Z,101135.53
2022-09-04T06:11:00.597Z,101145.09
2022-09-04T06:16:40.428Z,101142.47
2022-09-04T06:21:54.113Z,101154.41
2022-09-04T06:26:58.263Z,101156.84
2022-09-04T06:32:31.337Z,101159.47
2022-09-04T06:37:46.090Z,101160.41
2022-09-04T06:43:05.975Z,101158.13
2022-09-04T06:48:18.468Z,101166.88
2022-09-04T06:53:43.289Z,101163.44
2022-09-04T06:58:51.817Z,101179.84
2022-09-04T07:04:30.932Z,101185.25
2022-09-04T07:09:40.613Z,101192.13
2022-09-04T07:15:12.241Z,101179.47
2022-09-04T07:20:31.491Z,101191.94
2022-09-04T07:25:44.520Z,101188.75
2022-09-04T07:30:54.271Z,101196.59
2022-09-04T07:36:07.941Z,101208.69
2022-09-04T07:41:17.776Z,101215.75
2022-09-04T07:46:30.407Z,101208.56
2022-09-04T07:51:41.693Z,101213.00
2022-09-04T07:57:16.434Z,101205.66
2022-09-04T08:02:33.066Z,101220.03
2022-09-04T08:07:34.476Z,101216.06
2022-09-04T08:12:56.703Z,101221.44
2022-09-04T08:18:23.633Z,101230.72
2022-09-04T08:23:55.387Z,101237.09
2022-09-04T08:28:59.983Z,101249.41
2022-09-04T08:34:04.721Z,101237.13
2022-09-04T08:39:11.543Z,101238.94
2022-09-04T08:44:26.852Z,101241.38
2022-09-04T08:49:51.972Z,101240.34
2022-09-04T08:55:05.773Z,101244.69
2022-09-04T09:00:16.578Z,101254.69
2022-09-04T09:05:55.685Z,101255.78
2022-09-04T09:11:21.309Z,101252.97
2022-09-04T09:16:42.705Z,101259.03
2022-09-04T09:21:45.328Z,101260.34
2022-09-04T09:27:15.875Z,101255.03
2022-09-04T09:32:32.753Z,101254.03
2022-09-04T09:38:04.611Z,101249.50
2022-09-04T09:43:42.031Z,101242.88
2022-09-04T09:49:20.887Z,101254.53
2022-09-04T09:54:43.780Z,101244.75
2022-09-04T10:00:14.620Z,101240.16
2022-09-04T10:05:43.976Z,101242.41
2022-09-04T10:11:18.392Z,101241.78
2022-09-04T10:16:47.725Z,101234.72
2022-09-04T10:22:08.843Z,101243.06
2022-09-04T10:28:01.724Z,101249.72
2022-09-04T10:33:41.387Z,101254.38
2022-09-04T10:39:30.385Z,101249.84
2022-09-04T10:44:50.605Z,101251.81
2022-09-04T10:50:07.839Z,101242.88
2022-09-04T10:55:16.882Z,101239.09
2022-09-04T11:00:21.417Z,101245.50
2022-09-04T11:05:23.640Z,101240.59
2022-09-04T11:10:33.672Z,101234.63
2022-09-04T11:15:35.264Z,101233.03
2022-09-04T11:20:58.864Z,101237.88
2022-09-04T11:26:28.861Z,101235.59
2022-09-04T11:31:55.073Z,101240.25
2022-09-04T11:37:34.968Z,101234.41
2022-09-04T11:42:41.469Z,101237.41
2022-09-04T11:48:00.958Z,101239.94
2022-09-04T11:53:34.913Z,101231.72
2022-09-04T11:59:15.313Z,101237.75
2022-09-04T12:04:40.720Z,101233.81
2022-09-04T12:10:10.619Z,101238.66
2022-09-04T12:15:28.883Z,101236.53
2022-09-04T12:20:59.363Z,101240.47
2022-09-04T12:26:51.726Z,101240.34
2022-09-04T12:32:09.354Z,101249.72
2022-09-04T12:37:37.452Z,101242.19
2022-09-04T12:42:58.383Z,101235.72
2022-09-04T12:48:28.051Z,101240.97
2022-09-04T12:53:52.954Z,101245.63
2022-09-04T12:59:22.246Z,101245.00
2022-09-04T13:04:35.239Z,101237.50
2022-09-04T13:10:12.041Z,101241.56
2022-09-04T13:15:22.358Z,101249.63
2022-09-04T13:20:40.318Z,101249.28
2022-09-04T13:26:12.445Z,101249.63
2022-09-04T13:31:20.252Z,101259.50
2022-09-04T13:36:40.501Z,101249.41
2022-09-04T13:42:00.911Z,101250.81
2022-09-04T13:47:08.868Z,101251.78
2022-09-04T13:52:20.157Z,101246.34
2022-09-04T13:57:27.810Z,101258.41
2022-09-04T14:02:30.168Z,101250.06
2022-09-04T14:07:45.211Z,101253.22
2022-09-04T14:13:00.742Z,101248.63
2022-09-04T14:18:47.296Z,101255.53
2022-09-04T14:24:21.069Z,101246.63
2022-09-04T14:29:54.636Z,101252.94
2022-09-04T14:35:12.658Z,101247.47
2022-09-04T14:40:25.276Z,101248.19
2022-09-04T14:46:20.495Z,101242.31
2022-09-04T14:51:22.050Z,101236.00
2022-09-04T14:56:49.704Z,101235.72
2022-09-04T15:02:09.497Z,101242.06
2022-09-04T15:07:42.309Z,101239.13
2022-09-04T15:12:52.385Z,101239.13
2022-09-04T15:18:02.130Z,101243.34
2022-09-04T15:23:27.484Z,101238.28
2022-09-04T15:28:41.329Z,101241.28
2022-09-04T15:33:46.708Z,101241.16
2022-09-04T15:38:53.568Z,101227.34
2022-09-04T15:44:29.943Z,101234.50
2022-09-04T15:49:51.400Z,101232.34
2022-09-04T15:55:05.253Z,101241.53
2022-09-04T16:00:15.099Z,101234.19
2022-09-04T16:05:45.085Z,101233.03
2022-09-04T16:10:57.290Z,101238.53
2022-09-04T16:16:10.204Z,101238.53
2022-09-04T16:21:44.391Z,101239.66
2022-09-04T16:26:52.655Z,101231.88
2022-09-04T16:31:57.692Z,101230.03
2022-09-04T16:37:09.792Z,101239.06
2022-09-04T16:42:28.216Z,101234.13
2022-09-04T16:47:44.532Z,101235.78
2022-09-04T16:53:13.851Z,101238.56
2022-09-04T16:58:33.923Z,101226.28
2022-09-04T17:04:13.174Z,101219.28
2022-09-04T17:09:21.546Z,101219.81
2022-09-04T17:14:42.145Z,101223.69
2022-09-04T17:19:43.692Z,101223.41
2022-09-04T17:29:01.570Z,101226.00
2022-09-04T17:30:32.839Z,101219.91
2022-09-04T17:40:39.587Z,101218.94
2022-09-04T17:41:34.609Z,101223.75
2022-09-04T17:46:39.808Z,101227.84
2022-09-04T17:51:48.829Z,101230.00
2022-09-04T17:56:59.647Z,101225.97
2022-09-04T18:02:20.124Z,101228.75
2022-09-04T18:08:07.220Z,101240.78
2022-09-04T18:13:36.311Z,101247.22
2022-09-04T18:18:45.686Z,101248.72
2022-09-04T18:23:55.456Z,101267.38
2022-09-04T18:28:56.940Z,101272.03
2022-09-04T18:37:19.203Z,101271.03
2022-09-04T18:39:56.892Z,101288.59
2022-09-04T18:50:30.653Z,101290.16
2022-09-04T18:51:15.096Z,101300.84
2022-09-04T18:56:22.363Z,101307.31
2022-09-04T19:02:05.545Z,101304.00
2022-09-04T19:07:16.588Z,101316.22
2022-09-04T19:12:21.418Z,101314.19
2022-09-04T19:17:31.219Z,101317.44
2022-09-04T19:22:38.602Z,101323.28
2022-09-04T19:27:55.026Z,101312.91
2022-09-04T19:33:16.143Z,101314.00
2022-09-04T19:42:42.110Z,101308.34
2022-09-04T19:46:11.954Z,101318.69
2022-09-04T19:52:04.995Z,101317.50
2022-09-04T19:55:00.006Z,101314.19
2022-09-04T20:00:43.640Z,101317.78
2022-09-04T20:05:58.541Z,101320.47
2022-09-04T20:11:39.440Z,101332.16
2022-09-04T20:16:55.001Z,101339.09
2022-09-04T20:22:23.693Z,101337.56
2022-09-04T20:27:35.471Z,101333.97
2022-09-04T20:32:48.132Z,101339.16
2022-09-04T20:38:23.164Z,101337.31
2022-09-04T20:43:41.402Z,101336.56
2022-09-04T20:52:51.378Z,101347.25
2022-09-04T20:54:39.280Z,101350.56
2022-09-04T21:03:10.209Z,101342.81
2022-09-04T21:05:24.785Z,101349.03
2022-09-04T21:10:54.956Z,101343.66
2022-09-04T21:16:25.825Z,101340.34
2022-09-04T21:21:39.422Z,101349.84
2022-09-04T21:26:49.689Z,101344.66
2022-09-04T21:31:51.212Z,101356.84
2022-09-04T21:37:05.542Z,101350.63
2022-09-04T21:42:25.605Z,101344.00
2022-09-04T21:47:45.983Z,101353.34
2022-09-04T21:53:03.324Z,101353.13
2022-09-04T22:02:40.983Z,101350.44
2022-09-04T22:04:44.733Z,101352.16
2022-09-04T22:13:41.780Z,101354.50
2022-09-04T22:16:05.081Z,101357.97
2022-09-04T22:21:34.077Z,101355.09
2022-09-04T22:27:27.000Z,101358.34
2022-09-04T22:32:56.354Z,101358.91
2022-09-04T22:38:13.321Z,101350.56
2022-09-04T22:43:25.988Z,101360.22
2022-09-04T22:48:33.365Z,101358.50
2022-09-04T22:53:46.409Z,101353.69
2022-09-04T22:59:26.930Z,101361.63
2022-09-04T23:04:51.589Z,101353.59
2022-09-04T23:13:49.834Z,101357.19
2022-09-04T23:15:48.329Z,101371.28
2022-09-04T23:26:32.966Z,101366.66
2022-09-04T23:27:00.492Z,101364.44
2022-09-04T23:32:43.963Z,101364.50
2022-09-04T23:38:21.636Z,101374.19
2022-09-04T23:43:45.350Z,101374.91
2022-09-04T23:49:08.727Z,101368.94
2022-09-04T23:54:46.601Z,101369.09
